sensor_id;sensor_type;location;lat;lon;timestamp;P1;durP1;ratioP1;P2;durP2;ratioP2
14738;SDS011;7461;52.440;13.540;2022-12-18T00:00:20;51.08;;;38.55;;
14738;SDS011;7461;52.440;13.540;2022-12-18T00:02:47;59.95;;;41.67;;
14738;SDS011;7461;52.440;13.540;2022-12-18T00:05:15;50.47;;;36.85;;
14738;SDS011;7461;52.440;13.540;2022-12-18T00:07:42;47.60;;;38.72;;
14738;SDS011;7461;52.440;13.540;2022-12-18T00:10:09;57.85;;;39.25;;
14738;SDS011;7461;52.440;13.540;2022-12-18T00:12:36;55.17;;;40.90;;
14738;SDS011;7461;52.440;13.540;2022-12-18T00:15:05;45.83;;;36.20;;
14738;SDS011;7461;52.440;13.540;2022-12-18T00:17:33;49.92;;;36.45;;
14738;SDS011;7461;52.440;13.540;2022-12-18T00:20:00;51.92;;;37.72;;
14738;SDS011;7461;52.440;13.540;2022-12-18T00:22:27;46.90;;;38.85;;
14738;SDS011;7461;52.440;13.540;2022-12-18T00:24:54;54.38;;;39.20;;
14738;SDS011;7461;52.440;13.540;2022-12-18T00:27:22;52.35;;;37.08;;
14738;SDS011;7461;52.440;13.540;2022-12-18T00:29:49;59.90;;;40.72;;
14738;SDS011;7461;52.440;13.540;2022-12-18T00:32:18;51.58;;;39.42;;
14738;SDS011;7461;52.440;13.540;2022-12-18T00:34:45;60.00;;;42.28;;
14738;SDS011;7461;52.440;13.540;2022-12-18T00:37:13;51.08;;;40.47;;
14738;SDS011;7461;52.440;13.540;2022-12-18T00:39:40;55.22;;;38.70;;
14738;SDS011;7461;52.440;13.540;2022-12-18T00:42:08;58.67;;;45.05;;
14738;SDS011;7461;52.440;13.540;2022-12-18T00:44:55;60.47;;;43.42;;
14738;SDS011;7461;52.440;13.540;2022-12-18T00:47:23;62.15;;;41.25;;
14738;SDS011;7461;52.440;13.540;2022-12-18T00:49:50;62.28;;;45.05;;
14738;SDS011;7461;52.440;13.540;2022-12-18T00:52:18;67.72;;;46.22;;
14738;SDS011;7461;52.440;13.540;2022-12-18T00:54:45;66.03;;;43.80;;
14738;SDS011;7461;52.440;13.540;2022-12-18T00:57:12;64.32;;;43.17;;
14738;SDS011;7461;52.440;13.540;2022-12-18T00:59:39;71.00;;;47.60;;
14738;SDS011;7461;52.440;13.540;2022-12-18T01:02:07;64.85;;;44.58;;
14738;SDS011;7461;52.440;13.540;2022-12-18T01:04:35;65.65;;;44.67;;
14738;SDS011;7461;52.440;13.540;2022-12-18T01:07:02;57.13;;;41.53;;
14738;SDS011;7461;52.440;13.540;2022-12-18T01:09:30;55.00;;;42.05;;
14738;SDS011;7461;52.440;13.540;2022-12-18T01:11:57;51.72;;;34.88;;
14738;SDS011;7461;52.440;13.540;2022-12-18T01:14:24;44.83;;;36.90;;
14738;SDS011;7461;52.440;13.540;2022-12-18T01:16:52;51.25;;;37.78;;
14738;SDS011;7461;52.440;13.540;2022-12-18T01:19:19;51.83;;;38.67;;
14738;SDS011;7461;52.440;13.540;2022-12-18T01:21:47;50.22;;;35.47;;
14738;SDS011;7461;52.440;13.540;2022-12-18T01:24:15;46.53;;;33.72;;
14738;SDS011;7461;52.440;13.540;2022-12-18T01:26:42;44.38;;;34.50;;
14738;SDS011;7461;52.440;13.540;2022-12-18T01:29:09;43.97;;;33.85;;
14738;SDS011;7461;52.440;13.540;2022-12-18T01:31:36;45.78;;;34.90;;
14738;SDS011;7461;52.440;13.540;2022-12-18T01:34:04;41.55;;;36.53;;
14738;SDS011;7461;52.440;13.540;2022-12-18T01:36:32;44.88;;;35.47;;
14738;SDS011;7461;52.440;13.540;2022-12-18T01:39:02;48.50;;;35.72;;
14738;SDS011;7461;52.440;13.540;2022-12-18T01:41:30;50.35;;;36.50;;
14738;SDS011;7461;52.440;13.540;2022-12-18T01:47:12;44.63;;;35.47;;
14738;SDS011;7461;52.440;13.540;2022-12-18T01:49:41;57.53;;;37.35;;
14738;SDS011;7461;52.440;13.540;2022-12-18T01:52:08;48.10;;;35.58;;
14738;SDS011;7461;52.440;13.540;2022-12-18T01:54:37;49.38;;;35.97;;
14738;SDS011;7461;52.440;13.540;2022-12-18T01:57:04;47.58;;;34.38;;
14738;SDS011;7461;52.440;13.540;2022-12-18T01:59:31;47.80;;;35.38;;
14738;SDS011;7461;52.440;13.540;2022-12-18T02:01:59;42.15;;;33.00;;
14738;SDS011;7461;52.440;13.540;2022-12-18T02:04:27;40.63;;;31.27;;
14738;SDS011;7461;52.440;13.540;2022-12-18T02:06:55;36.58;;;30.30;;
14738;SDS011;7461;52.440;13.540;2022-12-18T02:09:26;44.28;;;31.20;;
14738;SDS011;7461;52.440;13.540;2022-12-18T02:11:58;38.85;;;31.23;;
14738;SDS011;7461;52.440;13.540;2022-12-18T02:14:28;40.70;;;32.38;;
14738;SDS011;7461;52.440;13.540;2022-12-18T02:16:58;43.20;;;33.42;;
14738;SDS011;7461;52.440;13.540;2022-12-18T02:19:32;45.67;;;34.50;;
14738;SDS011;7461;52.440;13.540;2022-12-18T02:22:06;40.35;;;32.83;;
14738;SDS011;7461;52.440;13.540;2022-12-18T02:24:39;50.50;;;34.85;;
14738;SDS011;7461;52.440;13.540;2022-12-18T02:27:11;44.83;;;33.50;;
14738;SDS011;7461;52.440;13.540;2022-12-18T02:29:39;44.80;;;33.40;;
14738;SDS011;7461;52.440;13.540;2022-12-18T02:32:08;41.90;;;31.85;;
14738;SDS011;7461;52.440;13.540;2022-12-18T02:34:37;39.10;;;30.02;;
14738;SDS011;7461;52.440;13.540;2022-12-18T02:37:05;40.55;;;31.63;;
14738;SDS011;7461;52.440;13.540;2022-12-18T02:39:34;37.53;;;28.85;;
14738;SDS011;7461;52.440;13.540;2022-12-18T02:42:02;40.83;;;29.88;;
14738;SDS011;7461;52.440;13.540;2022-12-18T02:44:34;41.22;;;32.08;;
14738;SDS011;7461;52.440;13.540;2022-12-18T02:47:01;37.63;;;29.52;;
14738;SDS011;7461;52.440;13.540;2022-12-18T02:49:31;39.63;;;30.75;;
14738;SDS011;7461;52.440;13.540;2022-12-18T02:52:02;39.75;;;30.23;;
14738;SDS011;7461;52.440;13.540;2022-12-18T02:54:36;46.08;;;32.10;;
14738;SDS011;7461;52.440;13.540;2022-12-18T02:57:05;36.63;;;31.30;;
14738;SDS011;7461;52.440;13.540;2022-12-18T02:59:40;34.30;;;28.05;;
14738;SDS011;7461;52.440;13.540;2022-12-18T03:02:11;38.63;;;30.17;;
14738;SDS011;7461;52.440;13.540;2022-12-18T03:04:42;33.95;;;27.13;;
14738;SDS011;7461;52.440;13.540;2022-12-18T03:07:11;41.53;;;32.53;;
14738;SDS011;7461;52.440;13.540;2022-12-18T03:09:42;41.45;;;30.98;;
14738;SDS011;7461;52.440;13.540;2022-12-18T03:12:13;43.58;;;32.78;;
14738;SDS011;7461;52.440;13.540;2022-12-18T03:14:54;46.63;;;32.90;;
14738;SDS011;7461;52.440;13.540;2022-12-18T03:17:25;38.60;;;32.40;;
14738;SDS011;7461;52.440;13.540;2022-12-18T03:19:53;45.50;;;35.55;;
14738;SDS011;7461;52.440;13.540;2022-12-18T03:22:21;45.70;;;32.75;;
14738;SDS011;7461;52.440;13.540;2022-12-18T03:24:49;40.90;;;34.67;;
14738;SDS011;7461;52.440;13.540;2022-12-18T03:27:18;44.45;;;30.83;;
14738;SDS011;7461;52.440;13.540;2022-12-18T03:29:47;46.85;;;35.72;;
14738;SDS011;7461;52.440;13.540;2022-12-18T03:32:20;44.05;;;36.35;;
14738;SDS011;7461;52.440;13.540;2022-12-18T03:34:48;37.25;;;30.98;;
14738;SDS011;7461;52.440;13.540;2022-12-18T03:37:17;41.92;;;32.20;;
14738;SDS011;7461;52.440;13.540;2022-12-18T03:39:45;37.72;;;31.40;;
14738;SDS011;7461;52.440;13.540;2022-12-18T03:42:14;44.85;;;33.03;;
14738;SDS011;7461;52.440;13.540;2022-12-18T03:44:44;50.75;;;37.60;;
14738;SDS011;7461;52.440;13.540;2022-12-18T03:47:13;47.53;;;33.60;;
14738;SDS011;7461;52.440;13.540;2022-12-18T03:49:44;43.33;;;33.25;;
14738;SDS011;7461;52.440;13.540;2022-12-18T03:52:13;43.75;;;31.48;;
14738;SDS011;7461;52.440;13.540;2022-12-18T03:54:44;38.03;;;29.70;;
14738;SDS011;7461;52.440;13.540;2022-12-18T03:57:13;37.58;;;28.30;;
14738;SDS011;7461;52.440;13.540;2022-12-18T03:59:41;37.33;;;32.63;;
14738;SDS011;7461;52.440;13.540;2022-12-18T04:02:10;35.60;;;30.40;;
14738;SDS011;7461;52.440;13.540;2022-12-18T04:04:38;37.42;;;28.42;;
14738;SDS011;7461;52.440;13.540;2022-12-18T04:07:07;42.28;;;31.42;;
14738;SDS011;7461;52.440;13.540;2022-12-18T04:09:36;34.90;;;26.58;;
14738;SDS011;7461;52.440;13.540;2022-12-18T04:12:05;31.83;;;27.17;;
14738;SDS011;7461;52.440;13.540;2022-12-18T04:14:33;36.30;;;27.88;;
14738;SDS011;7461;52.440;13.540;2022-12-18T04:17:00;37.38;;;28.77;;
14738;SDS011;7461;52.440;13.540;2022-12-18T04:19:27;37.55;;;30.17;;
14738;SDS011;7461;52.440;13.540;2022-12-18T04:21:55;28.10;;;24.95;;
14738;SDS011;7461;52.440;13.540;2022-12-18T04:24:23;30.65;;;27.33;;
14738;SDS011;7461;52.440;13.540;2022-12-18T04:26:51;39.28;;;29.38;;
14738;SDS011;7461;52.440;13.540;2022-12-18T04:29:18;38.28;;;29.55;;
14738;SDS011;7461;52.440;13.540;2022-12-18T04:31:45;38.55;;;30.23;;
14738;SDS011;7461;52.440;13.540;2022-12-18T04:34:12;37.28;;;31.65;;
14738;SDS011;7461;52.440;13.540;2022-12-18T04:36:40;43.90;;;31.52;;
14738;SDS011;7461;52.440;13.540;2022-12-18T04:39:07;48.58;;;30.73;;
14738;SDS011;7461;52.440;13.540;2022-12-18T04:41:35;45.72;;;32.90;;
14738;SDS011;7461;52.440;13.540;2022-12-18T04:44:03;33.47;;;27.63;;
14738;SDS011;7461;52.440;13.540;2022-12-18T04:46:30;40.65;;;27.40;;
14738;SDS011;7461;52.440;13.540;2022-12-18T04:48:57;40.55;;;31.85;;
14738;SDS011;7461;52.440;13.540;2022-12-18T04:51:24;41.08;;;31.40;;
14738;SDS011;7461;52.440;13.540;2022-12-18T04:53:52;46.72;;;32.58;;
14738;SDS011;7461;52.440;13.540;2022-12-18T04:56:19;41.40;;;33.33;;
14738;SDS011;7461;52.440;13.540;2022-12-18T04:58:48;45.40;;;32.55;;
14738;SDS011;7461;52.440;13.540;2022-12-18T05:01:15;39.95;;;31.42;;
14738;SDS011;7461;52.440;13.540;2022-12-18T05:03:43;43.28;;;32.42;;
14738;SDS011;7461;52.440;13.540;2022-12-18T05:06:10;49.83;;;33.72;;
14738;SDS011;7461;52.440;13.540;2022-12-18T05:08:37;57.85;;;36.50;;
14738;SDS011;7461;52.440;13.540;2022-12-18T05:11:05;57.05;;;35.70;;
14738;SDS011;7461;52.440;13.540;2022-12-18T05:13:33;52.63;;;35.60;;
14738;SDS011;7461;52.440;13.540;2022-12-18T05:16:02;42.78;;;31.95;;
14738;SDS011;7461;52.440;13.540;2022-12-18T05:18:29;50.42;;;34.65;;
14738;SDS011;7461;52.440;13.540;2022-12-18T05:20:57;48.47;;;35.20;;
14738;SDS011;7461;52.440;13.540;2022-12-18T05:23:24;54.08;;;35.20;;
14738;SDS011;7461;52.440;13.540;2022-12-18T05:25:52;53.25;;;37.45;;
14738;SDS011;7461;52.440;13.540;2022-12-18T05:28:20;51.40;;;37.95;;
14738;SDS011;7461;52.440;13.540;2022-12-18T05:30:48;48.53;;;34.30;;
14738;SDS011;7461;52.440;13.540;2022-12-18T05:33:17;40.83;;;34.22;;
14738;SDS011;7461;52.440;13.540;2022-12-18T05:35:49;49.92;;;35.63;;
14738;SDS011;7461;52.440;13.540;2022-12-18T05:38:16;51.90;;;37.17;;
14738;SDS011;7461;52.440;13.540;2022-12-18T05:40:44;47.13;;;35.00;;
14738;SDS011;7461;52.440;13.540;2022-12-18T05:43:11;49.20;;;39.22;;
14738;SDS011;7461;52.440;13.540;2022-12-18T05:45:38;55.50;;;37.65;;
14738;SDS011;7461;52.440;13.540;2022-12-18T05:48:06;58.25;;;38.45;;
14738;SDS011;7461;52.440;13.540;2022-12-18T05:50:35;47.97;;;35.97;;
14738;SDS011;7461;52.440;13.540;2022-12-18T05:53:02;52.38;;;37.22;;
14738;SDS011;7461;52.440;13.540;2022-12-18T05:55:32;52.67;;;36.60;;
14738;SDS011;7461;52.440;13.540;2022-12-18T05:58:00;52.45;;;36.67;;
14738;SDS011;7461;52.440;13.540;2022-12-18T06:00:27;51.03;;;35.85;;
14738;SDS011;7461;52.440;13.540;2022-12-18T06:02:54;48.63;;;37.72;;
14738;SDS011;7461;52.440;13.540;2022-12-18T06:05:22;53.53;;;39.15;;
14738;SDS011;7461;52.440;13.540;2022-12-18T06:07:50;63.05;;;39.10;;
14738;SDS011;7461;52.440;13.540;2022-12-18T06:10:18;48.13;;;37.67;;
14738;SDS011;7461;52.440;13.540;2022-12-18T06:12:45;44.28;;;37.15;;
14738;SDS011;7461;52.440;13.540;2022-12-18T06:15:12;61.95;;;41.60;;
14738;SDS011;7461;52.440;13.540;2022-12-18T06:17:40;43.72;;;35.13;;
14738;SDS011;7461;52.440;13.540;2022-12-18T06:20:07;51.22;;;39.03;;
14738;SDS011;7461;52.440;13.540;2022-12-18T06:22:35;56.03;;;36.75;;
14738;SDS011;7461;52.440;13.540;2022-12-18T06:25:04;42.88;;;34.00;;
14738;SDS011;7461;52.440;13.540;2022-12-18T06:27:32;44.83;;;34.72;;
14738;SDS011;7461;52.440;13.540;2022-12-18T06:29:59;49.40;;;37.20;;
14738;SDS011;7461;52.440;13.540;2022-12-18T06:32:26;52.35;;;36.58;;
14738;SDS011;7461;52.440;13.540;2022-12-18T06:34:54;48.05;;;34.63;;
14738;SDS011;7461;52.440;13.540;2022-12-18T06:37:21;49.78;;;33.63;;
14738;SDS011;7461;52.440;13.540;2022-12-18T06:39:51;49.38;;;36.58;;
14738;SDS011;7461;52.440;13.540;2022-12-18T06:42:19;53.92;;;37.67;;
14738;SDS011;7461;52.440;13.540;2022-12-18T06:44:47;48.80;;;33.10;;
14738;SDS011;7461;52.440;13.540;2022-12-18T06:47:14;51.05;;;36.42;;
14738;SDS011;7461;52.440;13.540;2022-12-18T06:49:41;38.50;;;33.97;;
14738;SDS011;7461;52.440;13.540;2022-12-18T06:52:08;52.47;;;36.67;;
14738;SDS011;7461;52.440;13.540;2022-12-18T06:54:36;61.60;;;42.20;;
14738;SDS011;7461;52.440;13.540;2022-12-18T06:57:03;56.25;;;37.50;;
14738;SDS011;7461;52.440;13.540;2022-12-18T06:59:32;47.58;;;34.17;;
14738;SDS011;7461;52.440;13.540;2022-12-18T07:01:59;52.53;;;38.13;;
14738;SDS011;7461;52.440;13.540;2022-12-18T07:04:27;50.42;;;37.67;;
14738;SDS011;7461;52.440;13.540;2022-12-18T07:06:54;56.05;;;39.67;;
14738;SDS011;7461;52.440;13.540;2022-12-18T07:09:22;53.90;;;38.78;;
14738;SDS011;7461;52.440;13.540;2022-12-18T07:11:49;48.80;;;36.47;;
14738;SDS011;7461;52.440;13.540;2022-12-18T07:14:16;49.60;;;39.13;;
14738;SDS011;7461;52.440;13.540;2022-12-18T07:16:45;51.53;;;35.95;;
14738;SDS011;7461;52.440;13.540;2022-12-18T07:19:12;54.58;;;38.90;;
14738;SDS011;7461;52.440;13.540;2022-12-18T07:21:40;44.88;;;35.70;;
14738;SDS011;7461;52.440;13.540;2022-12-18T07:24:07;43.25;;;31.83;;
14738;SDS011;7461;52.440;13.540;2022-12-18T07:26:34;51.15;;;34.05;;
14738;SDS011;7461;52.440;13.540;2022-12-18T07:29:02;40.38;;;32.65;;
14738;SDS011;7461;52.440;13.540;2022-12-18T07:31:29;39.58;;;32.08;;
14738;SDS011;7461;52.440;13.540;2022-12-18T07:33:57;39.60;;;31.17;;
14738;SDS011;7461;52.440;13.540;2022-12-18T07:36:25;44.97;;;33.90;;
14738;SDS011;7461;52.440;13.540;2022-12-18T07:38:52;46.20;;;34.50;;
14738;SDS011;7461;52.440;13.540;2022-12-18T07:41:19;40.47;;;32.78;;
14738;SDS011;7461;52.440;13.540;2022-12-18T07:43:47;44.30;;;34.30;;
14738;SDS011;7461;52.440;13.540;2022-12-18T07:46:15;38.58;;;31.70;;
14738;SDS011;7461;52.440;13.540;2022-12-18T07:48:42;38.63;;;31.80;;
14738;SDS011;7461;52.440;13.540;2022-12-18T07:51:11;43.92;;;32.05;;
14738;SDS011;7461;52.440;13.540;2022-12-18T07:53:38;43.80;;;33.08;;
14738;SDS011;7461;52.440;13.540;2022-12-18T07:56:07;36.92;;;30.30;;
14738;SDS011;7461;52.440;13.540;2022-12-18T07:58:35;46.80;;;32.30;;
14738;SDS011;7461;52.440;13.540;2022-12-18T08:01:03;43.85;;;33.55;;
14738;SDS011;7461;52.440;13.540;2022-12-18T08:03:30;44.22;;;31.75;;
14738;SDS011;7461;52.440;13.540;2022-12-18T08:05:58;40.22;;;32.30;;
14738;SDS011;7461;52.440;13.540;2022-12-18T08:08:27;47.58;;;33.50;;
14738;SDS011;7461;52.440;13.540;2022-12-18T08:10:55;41.75;;;32.75;;
14738;SDS011;7461;52.440;13.540;2022-12-18T08:13:22;48.85;;;36.33;;
14738;SDS011;7461;52.440;13.540;2022-12-18T08:15:55;41.78;;;34.95;;
14738;SDS011;7461;52.440;13.540;2022-12-18T08:18:23;40.55;;;32.85;;
14738;SDS011;7461;52.440;13.540;2022-12-18T08:20:50;42.80;;;32.08;;
14738;SDS011;7461;52.440;13.540;2022-12-18T08:23:17;36.22;;;31.38;;
14738;SDS011;7461;52.440;13.540;2022-12-18T08:25:46;44.75;;;31.85;;
14738;SDS011;7461;52.440;13.540;2022-12-18T08:28:16;39.13;;;29.88;;
14738;SDS011;7461;52.440;13.540;2022-12-18T08:30:44;51.13;;;34.65;;
14738;SDS011;7461;52.440;13.540;2022-12-18T08:33:11;43.38;;;32.67;;
14738;SDS011;7461;52.440;13.540;2022-12-18T08:35:38;39.45;;;29.75;;
14738;SDS011;7461;52.440;13.540;2022-12-18T08:38:05;47.20;;;32.67;;
14738;SDS011;7461;52.440;13.540;2022-12-18T08:40:33;42.47;;;29.73;;
14738;SDS011;7461;52.440;13.540;2022-12-18T08:43:01;43.03;;;34.65;;
14738;SDS011;7461;52.440;13.540;2022-12-18T08:45:46;44.53;;;32.85;;
14738;SDS011;7461;52.440;13.540;2022-12-18T08:48:13;49.22;;;36.03;;
14738;SDS011;7461;52.440;13.540;2022-12-18T08:50:41;39.10;;;32.95;;
14738;SDS011;7461;52.440;13.540;2022-12-18T08:53:08;45.35;;;36.42;;
14738;SDS011;7461;52.440;13.540;2022-12-18T08:55:35;51.58;;;38.10;;
14738;SDS011;7461;52.440;13.540;2022-12-18T08:58:04;53.83;;;36.60;;
14738;SDS011;7461;52.440;13.540;2022-12-18T09:00:31;44.60;;;35.58;;
14738;SDS011;7461;52.440;13.540;2022-12-18T09:02:58;42.03;;;34.42;;
14738;SDS011;7461;52.440;13.540;2022-12-18T09:05:26;42.25;;;30.92;;
14738;SDS011;7461;52.440;13.540;2022-12-18T09:07:53;49.28;;;36.80;;
14738;SDS011;7461;52.440;13.540;2022-12-18T09:10:21;51.95;;;35.90;;
14738;SDS011;7461;52.440;13.540;2022-12-18T09:12:48;51.67;;;37.90;;
14738;SDS011;7461;52.440;13.540;2022-12-18T09:15:17;46.78;;;36.42;;
14738;SDS011;7461;52.440;13.540;2022-12-18T09:17:44;48.42;;;33.55;;
14738;SDS011;7461;52.440;13.540;2022-12-18T09:20:11;58.80;;;35.00;;
14738;SDS011;7461;52.440;13.540;2022-12-18T09:22:39;45.17;;;31.88;;
14738;SDS011;7461;52.440;13.540;2022-12-18T09:25:06;45.47;;;30.52;;
14738;SDS011;7461;52.440;13.540;2022-12-18T09:27:33;53.28;;;34.38;;
14738;SDS011;7461;52.440;13.540;2022-12-18T09:30:01;35.95;;;31.75;;
14738;SDS011;7461;52.440;13.540;2022-12-18T09:32:30;41.22;;;34.20;;
14738;SDS011;7461;52.440;13.540;2022-12-18T09:34:57;47.53;;;35.58;;
14738;SDS011;7461;52.440;13.540;2022-12-18T09:37:24;50.75;;;36.25;;
14738;SDS011;7461;52.440;13.540;2022-12-18T09:39:52;41.97;;;34.50;;
14738;SDS011;7461;52.440;13.540;2022-12-18T09:42:20;49.13;;;37.03;;
14738;SDS011;7461;52.440;13.540;2022-12-18T09:44:49;46.05;;;36.22;;
14738;SDS011;7461;52.440;13.540;2022-12-18T09:47:17;47.10;;;34.38;;
14738;SDS011;7461;52.440;13.540;2022-12-18T09:49:47;50.33;;;35.10;;
14738;SDS011;7461;52.440;13.540;2022-12-18T09:52:17;44.47;;;31.88;;
14738;SDS011;7461;52.440;13.540;2022-12-18T09:54:46;45.60;;;33.90;;
14738;SDS011;7461;52.440;13.540;2022-12-18T09:57:16;46.33;;;33.83;;
14738;SDS011;7461;52.440;13.540;2022-12-18T09:59:46;52.60;;;33.92;;
14738;SDS011;7461;52.440;13.540;2022-12-18T10:02:15;48.83;;;36.90;;
14738;SDS011;7461;52.440;13.540;2022-12-18T10:04:43;50.28;;;37.45;;
14738;SDS011;7461;52.440;13.540;2022-12-18T10:07:13;52.40;;;36.75;;
14738;SDS011;7461;52.440;13.540;2022-12-18T10:09:43;50.05;;;35.75;;
14738;SDS011;7461;52.440;13.540;2022-12-18T10:12:16;56.10;;;36.75;;
14738;SDS011;7461;52.440;13.540;2022-12-18T10:14:47;51.45;;;34.05;;
14738;SDS011;7461;52.440;13.540;2022-12-18T10:17:19;47.08;;;33.20;;
14738;SDS011;7461;52.440;13.540;2022-12-18T10:19:49;41.60;;;33.45;;
14738;SDS011;7461;52.440;13.540;2022-12-18T10:22:25;51.72;;;34.33;;
14738;SDS011;7461;52.440;13.540;2022-12-18T10:24:59;51.25;;;33.67;;
14738;SDS011;7461;52.440;13.540;2022-12-18T10:27:27;51.75;;;39.05;;
14738;SDS011;7461;52.440;13.540;2022-12-18T10:29:55;37.55;;;29.55;;
14738;SDS011;7461;52.440;13.540;2022-12-18T10:32:24;50.78;;;34.85;;
14738;SDS011;7461;52.440;13.540;2022-12-18T10:34:52;45.78;;;33.38;;
14738;SDS011;7461;52.440;13.540;2022-12-18T10:37:20;47.70;;;34.78;;
14738;SDS011;7461;52.440;13.540;2022-12-18T10:40:04;40.00;;;33.08;;
14738;SDS011;7461;52.440;13.540;2022-12-18T10:42:33;41.42;;;32.88;;
14738;SDS011;7461;52.440;13.540;2022-12-18T10:45:01;49.65;;;34.50;;
14738;SDS011;7461;52.440;13.540;2022-12-18T10:47:28;45.00;;;36.10;;
14738;SDS011;7461;52.440;13.540;2022-12-18T10:49:55;45.97;;;35.85;;
14738;SDS011;7461;52.440;13.540;2022-12-18T10:52:24;47.28;;;35.65;;
14738;SDS011;7461;52.440;13.540;2022-12-18T10:54:54;48.95;;;35.28;;
14738;SDS011;7461;52.440;13.540;2022-12-18T10:57:29;37.65;;;30.27;;
14738;SDS011;7461;52.440;13.540;2022-12-18T10:59:58;46.33;;;35.03;;
14738;SDS011;7461;52.440;13.540;2022-12-18T11:02:26;44.55;;;32.78;;
14738;SDS011;7461;52.440;13.540;2022-12-18T11:04:54;41.40;;;32.20;;
14738;SDS011;7461;52.440;13.540;2022-12-18T11:07:21;34.45;;;28.67;;
14738;SDS011;7461;52.440;13.540;2022-12-18T11:10:00;41.08;;;29.40;;
14738;SDS011;7461;52.440;13.540;2022-12-18T11:12:28;35.75;;;30.08;;
14738;SDS011;7461;52.440;13.540;2022-12-18T11:14:56;34.95;;;29.67;;
14738;SDS011;7461;52.440;13.540;2022-12-18T11:17:26;36.08;;;29.15;;
14738;SDS011;7461;52.440;13.540;2022-12-18T11:19:55;37.03;;;30.60;;
14738;SDS011;7461;52.440;13.540;2022-12-18T11:22:23;37.67;;;31.60;;
14738;SDS011;7461;52.440;13.540;2022-12-18T11:24:53;31.75;;;26.92;;
14738;SDS011;7461;52.440;13.540;2022-12-18T11:27:23;32.28;;;25.42;;
14738;SDS011;7461;52.440;13.540;2022-12-18T11:29:51;33.83;;;27.42;;
14738;SDS011;7461;52.440;13.540;2022-12-18T11:32:29;31.35;;;27.73;;
14738;SDS011;7461;52.440;13.540;2022-12-18T11:35:01;31.20;;;25.60;;
14738;SDS011;7461;52.440;13.540;2022-12-18T11:37:29;32.40;;;24.48;;
14738;SDS011;7461;52.440;13.540;2022-12-18T11:39:59;35.78;;;27.52;;
14738;SDS011;7461;52.440;13.540;2022-12-18T11:42:30;34.75;;;28.25;;
14738;SDS011;7461;52.440;13.540;2022-12-18T11:45:02;29.90;;;22.75;;
14738;SDS011;7461;52.440;13.540;2022-12-18T11:47:34;33.55;;;28.33;;
14738;SDS011;7461;52.440;13.540;2022-12-18T11:50:05;37.95;;;27.42;;
14738;SDS011;7461;52.440;13.540;2022-12-18T11:52:39;41.70;;;27.52;;
14738;SDS011;7461;52.440;13.540;2022-12-18T11:55:10;34.30;;;25.63;;
14738;SDS011;7461;52.440;13.540;2022-12-18T11:57:41;30.15;;;24.98;;
14738;SDS011;7461;52.440;13.540;2022-12-18T12:00:12;33.42;;;25.20;;
14738;SDS011;7461;52.440;13.540;2022-12-18T12:02:42;33.42;;;26.92;;
14738;SDS011;7461;52.440;13.540;2022-12-18T12:05:20;36.88;;;25.83;;
14738;SDS011;7461;52.440;13.540;2022-12-18T12:07:53;32.00;;;25.98;;
14738;SDS011;7461;52.440;13.540;2022-12-18T12:10:25;26.90;;;24.08;;
14738;SDS011;7461;52.440;13.540;2022-12-18T12:13:00;38.55;;;28.63;;
14738;SDS011;7461;52.440;13.540;2022-12-18T12:15:31;30.20;;;26.70;;
14738;SDS011;7461;52.440;13.540;2022-12-18T12:18:03;29.60;;;26.40;;
14738;SDS011;7461;52.440;13.540;2022-12-18T12:20:36;28.27;;;25.30;;
14738;SDS011;7461;52.440;13.540;2022-12-18T12:23:08;35.00;;;26.95;;
14738;SDS011;7461;52.440;13.540;2022-12-18T12:25:39;35.90;;;29.85;;
14738;SDS011;7461;52.440;13.540;2022-12-18T12:28:15;34.40;;;30.50;;
14738;SDS011;7461;52.440;13.540;2022-12-18T12:30:47;36.72;;;27.95;;
14738;SDS011;7461;52.440;13.540;2022-12-18T12:33:22;36.05;;;31.98;;
14738;SDS011;7461;52.440;13.540;2022-12-18T12:35:57;38.17;;;30.23;;
14738;SDS011;7461;52.440;13.540;2022-12-18T12:38:30;34.53;;;30.27;;
14738;SDS011;7461;52.440;13.540;2022-12-18T12:40:59;35.90;;;28.10;;
14738;SDS011;7461;52.440;13.540;2022-12-18T12:43:31;36.13;;;27.00;;
14738;SDS011;7461;52.440;13.540;2022-12-18T12:46:00;39.78;;;30.58;;
14738;SDS011;7461;52.440;13.540;2022-12-18T12:48:31;34.40;;;28.85;;
14738;SDS011;7461;52.440;13.540;2022-12-18T12:51:00;32.45;;;28.67;;
14738;SDS011;7461;52.440;13.540;2022-12-18T12:53:29;30.77;;;27.33;;
14738;SDS011;7461;52.440;13.540;2022-12-18T12:55:57;32.50;;;26.40;;
14738;SDS011;7461;52.440;13.540;2022-12-18T12:58:26;43.00;;;30.40;;
14738;SDS011;7461;52.440;13.540;2022-12-18T13:01:01;33.28;;;29.55;;
14738;SDS011;7461;52.440;13.540;2022-12-18T13:03:31;34.55;;;30.77;;
14738;SDS011;7461;52.440;13.540;2022-12-18T13:06:02;31.65;;;28.42;;
14738;SDS011;7461;52.440;13.540;2022-12-18T13:08:32;36.13;;;32.22;;
14738;SDS011;7461;52.440;13.540;2022-12-18T13:11:28;37.35;;;32.70;;
14738;SDS011;7461;52.440;13.540;2022-12-18T13:14:19;39.08;;;32.13;;
14738;SDS011;7461;52.440;13.540;2022-12-18T13:16:48;37.45;;;33.42;;
14738;SDS011;7461;52.440;13.540;2022-12-18T13:19:21;38.03;;;32.38;;
14738;SDS011;7461;52.440;13.540;2022-12-18T13:21:52;36.67;;;32.65;;
14738;SDS011;7461;52.440;13.540;2022-12-18T13:24:23;39.88;;;34.08;;
14738;SDS011;7461;52.440;13.540;2022-12-18T13:26:52;36.15;;;32.05;;
14738;SDS011;7461;52.440;13.540;2022-12-18T13:29:40;40.45;;;35.42;;
14738;SDS011;7461;52.440;13.540;2022-12-18T13:32:22;41.88;;;35.58;;
14738;SDS011;7461;52.440;13.540;2022-12-18T13:48:52;43.80;;;39.33;;
14738;SDS011;7461;52.440;13.540;2022-12-18T13:51:19;45.38;;;39.95;;
14738;SDS011;7461;52.440;13.540;2022-12-18T13:53:48;46.92;;;42.17;;
14738;SDS011;7461;52.440;13.540;2022-12-18T13:56:17;43.13;;;37.55;;
14738;SDS011;7461;52.440;13.540;2022-12-18T13:58:44;44.88;;;40.47;;
14738;SDS011;7461;52.440;13.540;2022-12-18T14:01:24;37.72;;;34.13;;
14738;SDS011;7461;52.440;13.540;2022-12-18T14:06:36;36.30;;;32.60;;
14738;SDS011;7461;52.440;13.540;2022-12-18T14:09:03;41.22;;;32.78;;
14738;SDS011;7461;52.440;13.540;2022-12-18T14:11:30;35.38;;;31.88;;
14738;SDS011;7461;52.440;13.540;2022-12-18T14:13:58;38.47;;;34.67;;
14738;SDS011;7461;52.440;13.540;2022-12-18T14:16:25;33.92;;;30.40;;
14738;SDS011;7461;52.440;13.540;2022-12-18T14:18:54;33.47;;;30.20;;
14738;SDS011;7461;52.440;13.540;2022-12-18T14:21:23;36.13;;;32.08;;
14738;SDS011;7461;52.440;13.540;2022-12-18T14:24:04;29.45;;;26.48;;
14738;SDS011;7461;52.440;13.540;2022-12-18T14:26:31;30.80;;;27.85;;
14738;SDS011;7461;52.440;13.540;2022-12-18T14:29:00;32.65;;;29.45;;
14738;SDS011;7461;52.440;13.540;2022-12-18T14:31:29;32.47;;;29.20;;
14738;SDS011;7461;52.440;13.540;2022-12-18T14:33:56;34.60;;;30.77;;
14738;SDS011;7461;52.440;13.540;2022-12-18T14:36:24;30.67;;;27.73;;
14738;SDS011;7461;52.440;13.540;2022-12-18T14:38:52;32.13;;;28.65;;
14738;SDS011;7461;52.440;13.540;2022-12-18T14:41:21;30.63;;;27.60;;
14738;SDS011;7461;52.440;13.540;2022-12-18T14:43:49;32.00;;;29.05;;
14738;SDS011;7461;52.440;13.540;2022-12-18T14:46:27;32.08;;;28.88;;
14738;SDS011;7461;52.440;13.540;2022-12-18T14:48:55;32.63;;;29.45;;
14738;SDS011;7461;52.440;13.540;2022-12-18T14:51:22;34.58;;;30.25;;